Timişoara, România

04:58 PM EET on martie 03, 2015 (GMT +0200)
Dumbravita | Change Station
CLOSE
Current Station
Staţie meteo personală
Location: Timisoara, Timis
Elevation: 305 ft
Nearby Weather Stations

Elev 305 ft 45.80 °N, 21.24 °E | Updated 56 seconds ago

Clear
Cer senin
47.8 °F
Feels Like 43 °F
N
12.0
Vânt variabil Vânt from NV
Gusts 17.0 mph

astăzi
High -- | Low -- °F
--% Chance of Precip.
Ieri
High -- | Low -- °F
Precip. -- inch
7:10 AM 6:23 PM
Lună în creştere, 96% visible
Presiunea 30.21 inch
Vizibilitatea -9999.0 mile
Nori
Vânt rece 43 °F
Punctul de rouă 16 °F
Umiditatea 47%
Precipitaţii 0.00 inch
Adâncimea zăpezii Not available.
UV 0.0 out of 12
Pollen Not available.
Calitatea aerului Not available.
Flu Activity Not available.
METAR LRTR 031430Z 30014KT CAVOK 08/M02 Q1023 RMK R11/CLRD//

More Conditions Fewer Conditions

Presiunea 30.21 inch
Vizibilitatea -9999.0 mile
Nori
Vânt rece 43 °F
Punctul de rouă 16 °F
Umiditatea 47%
Precipitaţii 0.00 inch
Adâncimea zăpezii Not available.
UV 0.0 out of 12
Pollen Not available.
Calitatea aerului Not available.
Flu Activity Not available.
METAR LRTR 031430Z 30014KT CAVOK 08/M02 Q1023 RMK R11/CLRD//

More Conditions Fewer Conditions

10-Day Weather Forecast

Almanac

Astronomie

Mar. 03, 2015 Răsărit Apus
Timpul Actual
Crepusculul Civil
Crepusculul nautic
Răsărit Astronomic
Luna
Durata zilei lumină
Lungimea zilei
Tomorrow will be .
, % of the Moon is Illuminated

Extremele de azi

Country Highs Country Lows

Community

WunderPhotos

Upload Photos

1,802,117 photos uploaded!

WunderBlogs® & News

Nearby

Calitatea aerului

  Calitatea aerului Index de calitate a aerului Poluat
Not available.

Adâncimea zapezii

Station Depth Elevation

Earthquake Activity

Oraş Distance Mag. Time & Date
Minimum magnitude displayed is 2.5.

Coastal Water Temperatures

Locul Temperatura

Nearby Weather Stations